sensor_id;sensor_type;location;lat;lon;timestamp;P1;durP1;ratioP1;P2;durP2;ratioP2
13975;SDS011;7062;49.792;9.946;2023-01-24T00:01:18;9.60;;;6.35;;
13975;SDS011;7062;49.792;9.946;2023-01-24T00:03:44;8.27;;;5.77;;
13975;SDS011;7062;49.792;9.946;2023-01-24T00:06:09;9.60;;;6.17;;
13975;SDS011;7062;49.792;9.946;2023-01-24T00:08:35;7.47;;;6.50;;
13975;SDS011;7062;49.792;9.946;2023-01-24T00:11:01;8.63;;;5.83;;
13975;SDS011;7062;49.792;9.946;2023-01-24T00:13:29;7.18;;;5.90;;
13975;SDS011;7062;49.792;9.946;2023-01-24T00:16:05;8.02;;;5.43;;
13975;SDS011;7062;49.792;9.946;2023-01-24T00:18:31;7.25;;;5.25;;
13975;SDS011;7062;49.792;9.946;2023-01-24T00:21:05;8.30;;;5.07;;
13975;SDS011;7062;49.792;9.946;2023-01-24T00:23:37;8.52;;;5.65;;
13975;SDS011;7062;49.792;9.946;2023-01-24T00:26:04;8.85;;;6.30;;
13975;SDS011;7062;49.792;9.946;2023-01-24T00:28:30;9.80;;;6.10;;
13975;SDS011;7062;49.792;9.946;2023-01-24T00:30:56;7.47;;;5.53;;
13975;SDS011;7062;49.792;9.946;2023-01-24T00:33:21;7.10;;;4.93;;
13975;SDS011;7062;49.792;9.946;2023-01-24T00:35:49;7.60;;;5.60;;
13975;SDS011;7062;49.792;9.946;2023-01-24T00:38:16;8.63;;;6.18;;
13975;SDS011;7062;49.792;9.946;2023-01-24T00:40:42;6.78;;;5.25;;
13975;SDS011;7062;49.792;9.946;2023-01-24T00:43:08;8.73;;;5.67;;
13975;SDS011;7062;49.792;9.946;2023-01-24T00:45:37;7.50;;;5.40;;
13975;SDS011;7062;49.792;9.946;2023-01-24T00:48:04;8.07;;;5.45;;
13975;SDS011;7062;49.792;9.946;2023-01-24T00:50:31;8.02;;;6.20;;
13975;SDS011;7062;49.792;9.946;2023-01-24T00:52:57;7.97;;;5.82;;
13975;SDS011;7062;49.792;9.946;2023-01-24T00:55:22;7.23;;;5.47;;
13975;SDS011;7062;49.792;9.946;2023-01-24T00:57:48;8.07;;;5.77;;
13975;SDS011;7062;49.792;9.946;2023-01-24T01:00:14;7.43;;;5.23;;
13975;SDS011;7062;49.792;9.946;2023-01-24T01:02:40;8.45;;;6.55;;
13975;SDS011;7062;49.792;9.946;2023-01-24T01:05:05;8.50;;;6.30;;
13975;SDS011;7062;49.792;9.946;2023-01-24T01:07:31;8.13;;;6.40;;
13975;SDS011;7062;49.792;9.946;2023-01-24T01:09:57;7.33;;;5.57;;
13975;SDS011;7062;49.792;9.946;2023-01-24T01:12:23;7.47;;;5.73;;
13975;SDS011;7062;49.792;9.946;2023-01-24T01:14:49;8.00;;;5.93;;
13975;SDS011;7062;49.792;9.946;2023-01-24T01:17:14;8.60;;;5.80;;
13975;SDS011;7062;49.792;9.946;2023-01-24T01:19:40;7.55;;;6.68;;
13975;SDS011;7062;49.792;9.946;2023-01-24T01:22:06;8.43;;;5.90;;
13975;SDS011;7062;49.792;9.946;2023-01-24T01:24:32;7.97;;;5.83;;
13975;SDS011;7062;49.792;9.946;2023-01-24T01:26:58;7.77;;;6.53;;
13975;SDS011;7062;49.792;9.946;2023-01-24T01:29:24;7.60;;;5.82;;
13975;SDS011;7062;49.792;9.946;2023-01-24T01:31:49;8.13;;;6.33;;
13975;SDS011;7062;49.792;9.946;2023-01-24T01:34:15;8.83;;;5.97;;
13975;SDS011;7062;49.792;9.946;2023-01-24T01:36:41;6.20;;;5.20;;
13975;SDS011;7062;49.792;9.946;2023-01-24T01:39:06;8.57;;;6.43;;
13975;SDS011;7062;49.792;9.946;2023-01-24T01:41:32;9.00;;;6.13;;
13975;SDS011;7062;49.792;9.946;2023-01-24T01:44:16;8.87;;;6.63;;
13975;SDS011;7062;49.792;9.946;2023-01-24T01:47:02;9.60;;;6.78;;
13975;SDS011;7062;49.792;9.946;2023-01-24T01:49:28;8.60;;;7.07;;
13975;SDS011;7062;49.792;9.946;2023-01-24T01:51:58;7.75;;;5.82;;
13975;SDS011;7062;49.792;9.946;2023-01-24T01:54:29;8.57;;;5.78;;
13975;SDS011;7062;49.792;9.946;2023-01-24T01:57:01;9.98;;;6.88;;
13975;SDS011;7062;49.792;9.946;2023-01-24T01:59:29;8.80;;;6.40;;
13975;SDS011;7062;49.792;9.946;2023-01-24T02:01:58;9.45;;;6.78;;
13975;SDS011;7062;49.792;9.946;2023-01-24T02:04:30;7.50;;;5.85;;
13975;SDS011;7062;49.792;9.946;2023-01-24T02:07:33;9.75;;;7.15;;
13975;SDS011;7062;49.792;9.946;2023-01-24T02:09:58;7.30;;;6.22;;
13975;SDS011;7062;49.792;9.946;2023-01-24T02:12:28;8.07;;;6.63;;
13975;SDS011;7062;49.792;9.946;2023-01-24T02:15:19;9.07;;;6.72;;
13975;SDS011;7062;49.792;9.946;2023-01-24T02:18:06;8.30;;;6.82;;
13975;SDS011;7062;49.792;9.946;2023-01-24T02:20:39;9.38;;;6.78;;
13975;SDS011;7062;49.792;9.946;2023-01-24T02:26:14;9.48;;;6.88;;
13975;SDS011;7062;49.792;9.946;2023-01-24T02:29:14;10.65;;;7.57;;
13975;SDS011;7062;49.792;9.946;2023-01-24T02:34:26;9.10;;;7.28;;
13975;SDS011;7062;49.792;9.946;2023-01-24T02:36:57;10.18;;;7.72;;
13975;SDS011;7062;49.792;9.946;2023-01-24T02:39:29;9.20;;;6.85;;
13975;SDS011;7062;49.792;9.946;2023-01-24T02:42:01;10.35;;;7.40;;
13975;SDS011;7062;49.792;9.946;2023-01-24T02:47:16;9.02;;;7.60;;
13975;SDS011;7062;49.792;9.946;2023-01-24T02:49:42;10.40;;;7.70;;
13975;SDS011;7062;49.792;9.946;2023-01-24T02:52:07;10.07;;;8.27;;
13975;SDS011;7062;49.792;9.946;2023-01-24T02:54:52;9.55;;;7.22;;
13975;SDS011;7062;49.792;9.946;2023-01-24T02:57:18;11.50;;;7.57;;
13975;SDS011;7062;49.792;9.946;2023-01-24T03:00:03;9.35;;;7.15;;
13975;SDS011;7062;49.792;9.946;2023-01-24T03:02:31;10.48;;;6.72;;
13975;SDS011;7062;49.792;9.946;2023-01-24T03:04:57;11.63;;;7.90;;
13975;SDS011;7062;49.792;9.946;2023-01-24T03:07:22;11.20;;;7.57;;
13975;SDS011;7062;49.792;9.946;2023-01-24T03:09:48;11.73;;;7.93;;
13975;SDS011;7062;49.792;9.946;2023-01-24T03:12:13;11.60;;;8.53;;
13975;SDS011;7062;49.792;9.946;2023-01-24T03:14:58;12.25;;;8.70;;
13975;SDS011;7062;49.792;9.946;2023-01-24T03:17:42;10.65;;;7.93;;
13975;SDS011;7062;49.792;9.946;2023-01-24T03:20:26;9.95;;;7.45;;
13975;SDS011;7062;49.792;9.946;2023-01-24T03:23:10;11.00;;;7.78;;
13975;SDS011;7062;49.792;9.946;2023-01-24T03:25:55;11.27;;;8.70;;
13975;SDS011;7062;49.792;9.946;2023-01-24T03:28:40;9.55;;;7.30;;
13975;SDS011;7062;49.792;9.946;2023-01-24T03:31:26;9.98;;;7.95;;
13975;SDS011;7062;49.792;9.946;2023-01-24T03:34:10;11.20;;;7.85;;
13975;SDS011;7062;49.792;9.946;2023-01-24T03:36:55;10.65;;;8.73;;
13975;SDS011;7062;49.792;9.946;2023-01-24T03:39:21;11.67;;;8.30;;
13975;SDS011;7062;49.792;9.946;2023-01-24T03:42:05;9.70;;;8.07;;
13975;SDS011;7062;49.792;9.946;2023-01-24T03:44:31;9.30;;;7.57;;
13975;SDS011;7062;49.792;9.946;2023-01-24T03:46:56;13.23;;;9.73;;
13975;SDS011;7062;49.792;9.946;2023-01-24T03:49:22;12.60;;;8.90;;
13975;SDS011;7062;49.792;9.946;2023-01-24T03:52:06;9.73;;;7.63;;
13975;SDS011;7062;49.792;9.946;2023-01-24T03:54:50;10.95;;;8.00;;
13975;SDS011;7062;49.792;9.946;2023-01-24T03:57:16;10.87;;;8.63;;
13975;SDS011;7062;49.792;9.946;2023-01-24T03:59:41;12.93;;;8.47;;
13975;SDS011;7062;49.792;9.946;2023-01-24T04:02:07;12.50;;;8.47;;
13975;SDS011;7062;49.792;9.946;2023-01-24T04:04:33;12.27;;;8.73;;
13975;SDS011;7062;49.792;9.946;2023-01-24T04:07:17;12.93;;;9.38;;
13975;SDS011;7062;49.792;9.946;2023-01-24T04:09:42;12.00;;;8.97;;
13975;SDS011;7062;49.792;9.946;2023-01-24T04:12:08;10.73;;;8.63;;
13975;SDS011;7062;49.792;9.946;2023-01-24T04:14:33;13.97;;;10.20;;
13975;SDS011;7062;49.792;9.946;2023-01-24T04:16:59;12.77;;;9.73;;
13975;SDS011;7062;49.792;9.946;2023-01-24T04:19:25;13.90;;;9.00;;
13975;SDS011;7062;49.792;9.946;2023-01-24T04:21:50;11.90;;;9.00;;
13975;SDS011;7062;49.792;9.946;2023-01-24T04:24:16;13.53;;;10.57;;
13975;SDS011;7062;49.792;9.946;2023-01-24T04:26:41;12.10;;;8.47;;
13975;SDS011;7062;49.792;9.946;2023-01-24T04:29:07;12.33;;;9.37;;
13975;SDS011;7062;49.792;9.946;2023-01-24T04:31:33;10.23;;;8.60;;
13975;SDS011;7062;49.792;9.946;2023-01-24T04:33:58;12.53;;;9.80;;
13975;SDS011;7062;49.792;9.946;2023-01-24T04:36:24;10.90;;;9.40;;
13975;SDS011;7062;49.792;9.946;2023-01-24T04:38:49;11.50;;;9.70;;
13975;SDS011;7062;49.792;9.946;2023-01-24T04:41:15;11.77;;;9.73;;
13975;SDS011;7062;49.792;9.946;2023-01-24T04:43:40;9.57;;;8.13;;
13975;SDS011;7062;49.792;9.946;2023-01-24T04:46:06;13.50;;;9.70;;
13975;SDS011;7062;49.792;9.946;2023-01-24T04:48:32;13.97;;;9.80;;
13975;SDS011;7062;49.792;9.946;2023-01-24T04:51:00;12.50;;;9.77;;
13975;SDS011;7062;49.792;9.946;2023-01-24T04:53:26;11.93;;;9.38;;
13975;SDS011;7062;49.792;9.946;2023-01-24T04:55:58;14.73;;;10.27;;
13975;SDS011;7062;49.792;9.946;2023-01-24T04:58:25;15.18;;;10.25;;
13975;SDS011;7062;49.792;9.946;2023-01-24T05:00:52;11.57;;;9.00;;
13975;SDS011;7062;49.792;9.946;2023-01-24T05:03:17;12.45;;;9.55;;
13975;SDS011;7062;49.792;9.946;2023-01-24T05:05:43;16.63;;;9.60;;
13975;SDS011;7062;49.792;9.946;2023-01-24T05:08:13;12.98;;;9.55;;
13975;SDS011;7062;49.792;9.946;2023-01-24T05:10:38;13.60;;;9.67;;
13975;SDS011;7062;49.792;9.946;2023-01-24T05:13:04;13.37;;;10.53;;
13975;SDS011;7062;49.792;9.946;2023-01-24T05:15:29;13.80;;;9.40;;
13975;SDS011;7062;49.792;9.946;2023-01-24T05:17:55;13.40;;;9.10;;
13975;SDS011;7062;49.792;9.946;2023-01-24T05:20:21;13.40;;;10.23;;
13975;SDS011;7062;49.792;9.946;2023-01-24T05:22:46;14.80;;;10.23;;
13975;SDS011;7062;49.792;9.946;2023-01-24T05:25:17;13.18;;;9.23;;
13975;SDS011;7062;49.792;9.946;2023-01-24T05:27:43;14.52;;;9.82;;
13975;SDS011;7062;49.792;9.946;2023-01-24T05:30:09;12.25;;;9.23;;
13975;SDS011;7062;49.792;9.946;2023-01-24T05:32:36;12.63;;;9.77;;
13975;SDS011;7062;49.792;9.946;2023-01-24T05:35:02;15.13;;;10.77;;
13975;SDS011;7062;49.792;9.946;2023-01-24T05:37:29;12.07;;;9.98;;
13975;SDS011;7062;49.792;9.946;2023-01-24T05:39:54;15.23;;;10.43;;
13975;SDS011;7062;49.792;9.946;2023-01-24T05:42:20;13.77;;;10.70;;
13975;SDS011;7062;49.792;9.946;2023-01-24T05:44:46;13.60;;;10.67;;
13975;SDS011;7062;49.792;9.946;2023-01-24T05:47:11;13.23;;;10.00;;
13975;SDS011;7062;49.792;9.946;2023-01-24T05:49:37;11.13;;;8.80;;
13975;SDS011;7062;49.792;9.946;2023-01-24T05:52:02;12.93;;;8.80;;
13975;SDS011;7062;49.792;9.946;2023-01-24T05:54:28;11.77;;;8.73;;
13975;SDS011;7062;49.792;9.946;2023-01-24T05:56:54;12.77;;;9.67;;
13975;SDS011;7062;49.792;9.946;2023-01-24T05:59:20;12.40;;;9.70;;
13975;SDS011;7062;49.792;9.946;2023-01-24T06:01:45;14.47;;;10.00;;
13975;SDS011;7062;49.792;9.946;2023-01-24T06:04:11;14.97;;;10.87;;
13975;SDS011;7062;49.792;9.946;2023-01-24T06:06:37;13.30;;;9.70;;
13975;SDS011;7062;49.792;9.946;2023-01-24T06:09:02;12.27;;;9.23;;
13975;SDS011;7062;49.792;9.946;2023-01-24T06:11:28;12.33;;;8.73;;
13975;SDS011;7062;49.792;9.946;2023-01-24T06:13:54;12.13;;;9.20;;
13975;SDS011;7062;49.792;9.946;2023-01-24T06:16:22;15.38;;;10.05;;
13975;SDS011;7062;49.792;9.946;2023-01-24T06:18:48;13.48;;;9.95;;
13975;SDS011;7062;49.792;9.946;2023-01-24T06:24:05;13.85;;;9.75;;
13975;SDS011;7062;49.792;9.946;2023-01-24T06:26:33;12.27;;;9.65;;
13975;SDS011;7062;49.792;9.946;2023-01-24T06:28:59;11.60;;;9.00;;
13975;SDS011;7062;49.792;9.946;2023-01-24T06:36:58;11.38;;;8.13;;
13975;SDS011;7062;49.792;9.946;2023-01-24T06:39:26;13.15;;;10.35;;
13975;SDS011;7062;49.792;9.946;2023-01-24T06:41:52;13.07;;;10.00;;
13975;SDS011;7062;49.792;9.946;2023-01-24T06:44:18;14.53;;;9.77;;
13975;SDS011;7062;49.792;9.946;2023-01-24T06:46:44;13.52;;;10.65;;
13975;SDS011;7062;49.792;9.946;2023-01-24T06:49:10;12.90;;;9.77;;
13975;SDS011;7062;49.792;9.946;2023-01-24T06:51:36;14.48;;;9.13;;
13975;SDS011;7062;49.792;9.946;2023-01-24T06:54:02;14.43;;;10.05;;
13975;SDS011;7062;49.792;9.946;2023-01-24T06:56:28;12.60;;;9.77;;
13975;SDS011;7062;49.792;9.946;2023-01-24T06:58:53;13.30;;;9.60;;
13975;SDS011;7062;49.792;9.946;2023-01-24T07:01:19;11.90;;;9.37;;
13975;SDS011;7062;49.792;9.946;2023-01-24T07:03:44;13.50;;;9.47;;
13975;SDS011;7062;49.792;9.946;2023-01-24T07:06:10;11.87;;;9.17;;
13975;SDS011;7062;49.792;9.946;2023-01-24T07:08:36;11.83;;;9.60;;
13975;SDS011;7062;49.792;9.946;2023-01-24T07:11:01;12.40;;;9.80;;
13975;SDS011;7062;49.792;9.946;2023-01-24T07:13:27;11.63;;;8.70;;
13975;SDS011;7062;49.792;9.946;2023-01-24T07:15:53;9.97;;;7.87;;
13975;SDS011;7062;49.792;9.946;2023-01-24T07:18:18;11.80;;;9.13;;
13975;SDS011;7062;49.792;9.946;2023-01-24T07:20:45;12.02;;;8.50;;
13975;SDS011;7062;49.792;9.946;2023-01-24T07:23:22;12.70;;;9.73;;
13975;SDS011;7062;49.792;9.946;2023-01-24T07:25:52;10.52;;;8.63;;
13975;SDS011;7062;49.792;9.946;2023-01-24T07:28:19;12.30;;;8.30;;
13975;SDS011;7062;49.792;9.946;2023-01-24T07:30:44;12.27;;;8.40;;
13975;SDS011;7062;49.792;9.946;2023-01-24T07:33:11;11.40;;;8.43;;
13975;SDS011;7062;49.792;9.946;2023-01-24T07:35:38;13.52;;;9.25;;
13975;SDS011;7062;49.792;9.946;2023-01-24T07:38:04;11.30;;;9.13;;
13975;SDS011;7062;49.792;9.946;2023-01-24T07:40:30;10.47;;;8.10;;
13975;SDS011;7062;49.792;9.946;2023-01-24T07:42:58;12.23;;;8.80;;
13975;SDS011;7062;49.792;9.946;2023-01-24T07:45:25;13.07;;;8.95;;
13975;SDS011;7062;49.792;9.946;2023-01-24T07:47:54;12.17;;;9.07;;
13975;SDS011;7062;49.792;9.946;2023-01-24T07:50:21;12.55;;;9.27;;
13975;SDS011;7062;49.792;9.946;2023-01-24T07:52:51;11.60;;;9.20;;
13975;SDS011;7062;49.792;9.946;2023-01-24T07:55:17;14.82;;;9.90;;
13975;SDS011;7062;49.792;9.946;2023-01-24T07:57:44;11.73;;;9.43;;
13975;SDS011;7062;49.792;9.946;2023-01-24T08:00:10;10.93;;;9.27;;
13975;SDS011;7062;49.792;9.946;2023-01-24T08:02:36;14.15;;;9.52;;
13975;SDS011;7062;49.792;9.946;2023-01-24T08:05:01;14.00;;;9.67;;
13975;SDS011;7062;49.792;9.946;2023-01-24T08:07:27;11.60;;;9.70;;
13975;SDS011;7062;49.792;9.946;2023-01-24T08:09:52;16.23;;;11.23;;
13975;SDS011;7062;49.792;9.946;2023-01-24T08:12:18;14.07;;;10.50;;
13975;SDS011;7062;49.792;9.946;2023-01-24T08:14:44;13.43;;;9.25;;
13975;SDS011;7062;49.792;9.946;2023-01-24T08:17:10;16.13;;;10.33;;
13975;SDS011;7062;49.792;9.946;2023-01-24T08:19:35;13.37;;;10.80;;
13975;SDS011;7062;49.792;9.946;2023-01-24T08:22:02;15.18;;;11.80;;
13975;SDS011;7062;49.792;9.946;2023-01-24T08:24:28;11.48;;;9.30;;
13975;SDS011;7062;49.792;9.946;2023-01-24T08:26:54;13.83;;;9.13;;
13975;SDS011;7062;49.792;9.946;2023-01-24T08:29:20;13.03;;;9.90;;
13975;SDS011;7062;49.792;9.946;2023-01-24T08:31:45;10.50;;;9.33;;
13975;SDS011;7062;49.792;9.946;2023-01-24T08:34:13;13.50;;;9.82;;
13975;SDS011;7062;49.792;9.946;2023-01-24T08:36:39;13.13;;;9.10;;
13975;SDS011;7062;49.792;9.946;2023-01-24T08:39:04;11.53;;;8.83;;
13975;SDS011;7062;49.792;9.946;2023-01-24T08:41:30;12.77;;;9.33;;
13975;SDS011;7062;49.792;9.946;2023-01-24T08:43:56;12.40;;;8.73;;
13975;SDS011;7062;49.792;9.946;2023-01-24T08:46:21;14.03;;;9.50;;
13975;SDS011;7062;49.792;9.946;2023-01-24T08:48:47;14.70;;;9.10;;
13975;SDS011;7062;49.792;9.946;2023-01-24T08:51:13;10.77;;;8.67;;
13975;SDS011;7062;49.792;9.946;2023-01-24T08:53:38;10.33;;;8.33;;
13975;SDS011;7062;49.792;9.946;2023-01-24T08:56:04;14.97;;;10.03;;
13975;SDS011;7062;49.792;9.946;2023-01-24T08:58:32;12.52;;;9.68;;
13975;SDS011;7062;49.792;9.946;2023-01-24T09:00:58;12.65;;;8.88;;
13975;SDS011;7062;49.792;9.946;2023-01-24T09:03:24;11.75;;;9.25;;
13975;SDS011;7062;49.792;9.946;2023-01-24T09:06:00;12.43;;;9.20;;
13975;SDS011;7062;49.792;9.946;2023-01-24T09:08:26;14.15;;;9.32;;
13975;SDS011;7062;49.792;9.946;2023-01-24T09:10:52;11.93;;;8.60;;
13975;SDS011;7062;49.792;9.946;2023-01-24T09:13:18;10.20;;;7.75;;
13975;SDS011;7062;49.792;9.946;2023-01-24T09:15:44;10.30;;;9.00;;
13975;SDS011;7062;49.792;9.946;2023-01-24T09:18:10;11.60;;;9.10;;
13975;SDS011;7062;49.792;9.946;2023-01-24T09:20:35;9.80;;;8.40;;
13975;SDS011;7062;49.792;9.946;2023-01-24T09:23:11;11.03;;;7.60;;
13975;SDS011;7062;49.792;9.946;2023-01-24T09:25:39;11.55;;;8.80;;
13975;SDS011;7062;49.792;9.946;2023-01-24T09:28:06;17.17;;;8.85;;
13975;SDS011;7062;49.792;9.946;2023-01-24T09:30:32;14.00;;;8.73;;
13975;SDS011;7062;49.792;9.946;2023-01-24T09:32:58;13.77;;;8.85;;
13975;SDS011;7062;49.792;9.946;2023-01-24T09:35:27;11.40;;;8.63;;
13975;SDS011;7062;49.792;9.946;2023-01-24T09:37:52;10.70;;;8.20;;
13975;SDS011;7062;49.792;9.946;2023-01-24T09:40:20;11.37;;;8.13;;
13975;SDS011;7062;49.792;9.946;2023-01-24T09:43:12;9.52;;;7.68;;
13975;SDS011;7062;49.792;9.946;2023-01-24T09:45:52;10.88;;;9.18;;
13975;SDS011;7062;49.792;9.946;2023-01-24T09:48:30;22.52;;;12.57;;
13975;SDS011;7062;49.792;9.946;2023-01-24T09:50:59;11.90;;;9.05;;
13975;SDS011;7062;49.792;9.946;2023-01-24T09:53:38;12.15;;;8.88;;
13975;SDS011;7062;49.792;9.946;2023-01-24T09:56:12;12.88;;;9.25;;
13975;SDS011;7062;49.792;9.946;2023-01-24T09:58:59;10.88;;;9.07;;
13975;SDS011;7062;49.792;9.946;2023-01-24T10:01:37;11.25;;;9.05;;
13975;SDS011;7062;49.792;9.946;2023-01-24T10:04:08;16.58;;;10.10;;
13975;SDS011;7062;49.792;9.946;2023-01-24T10:06:38;9.77;;;8.73;;
13975;SDS011;7062;49.792;9.946;2023-01-24T10:09:18;11.23;;;9.23;;
13975;SDS011;7062;49.792;9.946;2023-01-24T10:11:54;11.07;;;9.40;;
13975;SDS011;7062;49.792;9.946;2023-01-24T10:14:36;13.90;;;9.13;;
13975;SDS011;7062;49.792;9.946;2023-01-24T10:17:45;10.35;;;8.95;;
13975;SDS011;7062;49.792;9.946;2023-01-24T10:22:45;10.67;;;8.27;;
13975;SDS011;7062;49.792;9.946;2023-01-24T10:25:25;13.80;;;9.27;;
13975;SDS011;7062;49.792;9.946;2023-01-24T10:27:55;13.20;;;9.60;;
13975;SDS011;7062;49.792;9.946;2023-01-24T10:30:29;12.00;;;8.45;;
13975;SDS011;7062;49.792;9.946;2023-01-24T10:33:12;13.25;;;9.48;;
13975;SDS011;7062;49.792;9.946;2023-01-24T10:38:20;12.55;;;8.95;;
13975;SDS011;7062;49.792;9.946;2023-01-24T10:40:53;12.87;;;9.90;;
13975;SDS011;7062;49.792;9.946;2023-01-24T10:43:25;11.63;;;8.75;;
13975;SDS011;7062;49.792;9.946;2023-01-24T10:53:39;10.77;;;8.90;;
13975;SDS011;7062;49.792;9.946;2023-01-24T10:56:04;15.33;;;9.77;;
13975;SDS011;7062;49.792;9.946;2023-01-24T11:01:18;13.57;;;9.93;;
13975;SDS011;7062;49.792;9.946;2023-01-24T11:03:46;12.63;;;8.73;;
13975;SDS011;7062;49.792;9.946;2023-01-24T11:06:31;12.23;;;9.77;;
13975;SDS011;7062;49.792;9.946;2023-01-24T11:09:12;11.90;;;8.95;;
13975;SDS011;7062;49.792;9.946;2023-01-24T11:11:43;9.90;;;7.78;;
13975;SDS011;7062;49.792;9.946;2023-01-24T11:14:19;12.75;;;8.73;;
13975;SDS011;7062;49.792;9.946;2023-01-24T11:16:47;10.93;;;8.52;;
13975;SDS011;7062;49.792;9.946;2023-01-24T11:19:20;14.25;;;8.98;;
13975;SDS011;7062;49.792;9.946;2023-01-24T11:21:50;12.90;;;9.10;;
13975;SDS011;7062;49.792;9.946;2023-01-24T11:24:24;12.23;;;8.75;;
13975;SDS011;7062;49.792;9.946;2023-01-24T11:29:19;9.95;;;7.65;;
13975;SDS011;7062;49.792;9.946;2023-01-24T11:31:50;9.93;;;8.02;;
13975;SDS011;7062;49.792;9.946;2023-01-24T11:37:26;11.88;;;9.65;;
13975;SDS011;7062;49.792;9.946;2023-01-24T11:42:46;11.40;;;7.22;;
13975;SDS011;7062;49.792;9.946;2023-01-24T11:45:39;12.85;;;9.20;;
13975;SDS011;7062;49.792;9.946;2023-01-24T11:55:03;11.10;;;7.88;;
13975;SDS011;7062;49.792;9.946;2023-01-24T12:01:10;11.82;;;9.18;;
13975;SDS011;7062;49.792;9.946;2023-01-24T12:22:16;9.27;;;7.25;;
13975;SDS011;7062;49.792;9.946;2023-01-24T12:24:50;8.68;;;7.40;;
13975;SDS011;7062;49.792;9.946;2023-01-24T12:27:22;9.32;;;7.13;;
13975;SDS011;7062;49.792;9.946;2023-01-24T12:30:01;11.10;;;7.28;;
13975;SDS011;7062;49.792;9.946;2023-01-24T12:35:34;8.27;;;7.00;;
13975;SDS011;7062;49.792;9.946;2023-01-24T12:40:50;10.63;;;7.15;;
13975;SDS011;7062;49.792;9.946;2023-01-24T12:48:40;9.73;;;6.75;;
13975;SDS011;7062;49.792;9.946;2023-01-24T12:54:21;11.18;;;7.72;;
13975;SDS011;7062;49.792;9.946;2023-01-24T12:56:59;9.52;;;7.05;;
13975;SDS011;7062;49.792;9.946;2023-01-24T12:59:35;13.65;;;7.13;;
13975;SDS011;7062;49.792;9.946;2023-01-24T13:04:50;7.38;;;6.40;;
13975;SDS011;7062;49.792;9.946;2023-01-24T13:07:39;8.73;;;6.40;;
13975;SDS011;7062;49.792;9.946;2023-01-24T13:13:18;9.32;;;6.95;;
13975;SDS011;7062;49.792;9.946;2023-01-24T13:24:12;7.22;;;5.72;;
13975;SDS011;7062;49.792;9.946;2023-01-24T13:29:44;8.60;;;5.93;;
13975;SDS011;7062;49.792;9.946;2023-01-24T13:32:32;7.43;;;5.80;;
13975;SDS011;7062;49.792;9.946;2023-01-24T13:35:04;9.73;;;6.18;;
13975;SDS011;7062;49.792;9.946;2023-01-24T13:37:41;6.70;;;5.57;;
13975;SDS011;7062;49.792;9.946;2023-01-24T13:42:41;8.63;;;6.40;;
13975;SDS011;7062;49.792;9.946;2023-01-24T13:47:48;9.65;;;6.43;;
13975;SDS011;7062;49.792;9.946;2023-01-24T13:50:15;8.43;;;6.35;;
13975;SDS011;7062;49.792;9.946;2023-01-24T13:52:45;11.80;;;6.60;;
13975;SDS011;7062;49.792;9.946;2023-01-24T14:10:51;10.00;;;7.00;;
13975;SDS011;7062;49.792;9.946;2023-01-24T14:18:57;8.75;;;6.75;;
13975;SDS011;7062;49.792;9.946;2023-01-24T14:24:26;12.48;;;7.05;;
13975;SDS011;7062;49.792;9.946;2023-01-24T14:26:56;9.35;;;6.35;;
13975;SDS011;7062;49.792;9.946;2023-01-24T14:29:39;8.60;;;6.85;;
13975;SDS011;7062;49.792;9.946;2023-01-24T14:37:44;9.57;;;6.50;;
13975;SDS011;7062;49.792;9.946;2023-01-24T14:42:49;7.72;;;5.80;;
13975;SDS011;7062;49.792;9.946;2023-01-24T14:45:29;8.15;;;6.80;;
13975;SDS011;7062;49.792;9.946;2023-01-24T14:47:56;9.52;;;6.97;;
13975;SDS011;7062;49.792;9.946;2023-01-24T14:52:54;10.25;;;6.82;;
13975;SDS011;7062;49.792;9.946;2023-01-24T14:57:51;11.43;;;7.80;;
13975;SDS011;7062;49.792;9.946;2023-01-24T15:00:17;8.63;;;6.60;;
13975;SDS011;7062;49.792;9.946;2023-01-24T15:07:50;11.15;;;8.00;;
13975;SDS011;7062;49.792;9.946;2023-01-24T15:10:20;10.83;;;9.13;;
13975;SDS011;7062;49.792;9.946;2023-01-24T15:13:01;9.80;;;8.30;;
13975;SDS011;7062;49.792;9.946;2023-01-24T15:15:29;8.65;;;6.55;;
13975;SDS011;7062;49.792;9.946;2023-01-24T15:17:59;10.52;;;8.50;;
13975;SDS011;7062;49.792;9.946;2023-01-24T15:20:27;9.23;;;7.18;;
13975;SDS011;7062;49.792;9.946;2023-01-24T15:22:54;8.80;;;7.10;;
13975;SDS011;7062;49.792;9.946;2023-01-24T15:25:22;13.35;;;7.90;;
13975;SDS011;7062;49.792;9.946;2023-01-24T15:27:52;10.05;;;7.82;;
13975;SDS011;7062;49.792;9.946;2023-01-24T15:30:19;9.15;;;8.02;;
13975;SDS011;7062;49.792;9.946;2023-01-24T15:40:31;10.98;;;8.50;;
13975;SDS011;7062;49.792;9.946;2023-01-24T15:49:22;8.65;;;6.80;;
13975;SDS011;7062;49.792;9.946;2023-01-24T15:51:59;9.27;;;7.30;;
13975;SDS011;7062;49.792;9.946;2023-01-24T15:54:52;11.07;;;7.88;;
13975;SDS011;7062;49.792;9.946;2023-01-24T15:57:29;10.90;;;7.30;;
13975;SDS011;7062;49.792;9.946;2023-01-24T16:00:01;9.32;;;7.53;;
13975;SDS011;7062;49.792;9.946;2023-01-24T16:02:33;11.35;;;7.65;;
13975;SDS011;7062;49.792;9.946;2023-01-24T16:04:59;10.43;;;8.33;;
13975;SDS011;7062;49.792;9.946;2023-01-24T16:07:26;10.13;;;8.48;;
13975;SDS011;7062;49.792;9.946;2023-01-24T16:09:51;9.87;;;8.87;;
13975;SDS011;7062;49.792;9.946;2023-01-24T16:12:20;14.20;;;9.25;;
13975;SDS011;7062;49.792;9.946;2023-01-24T16:14:53;10.68;;;8.68;;
13975;SDS011;7062;49.792;9.946;2023-01-24T16:17:21;9.27;;;8.38;;
13975;SDS011;7062;49.792;9.946;2023-01-24T16:19:48;9.85;;;7.63;;
13975;SDS011;7062;49.792;9.946;2023-01-24T16:22:14;10.37;;;8.13;;
13975;SDS011;7062;49.792;9.946;2023-01-24T16:24:40;15.68;;;9.25;;
13975;SDS011;7062;49.792;9.946;2023-01-24T16:27:08;8.77;;;7.83;;
13975;SDS011;7062;49.792;9.946;2023-01-24T16:29:36;9.80;;;8.15;;
13975;SDS011;7062;49.792;9.946;2023-01-24T16:32:02;9.43;;;8.07;;
13975;SDS011;7062;49.792;9.946;2023-01-24T16:34:28;9.17;;;7.73;;
13975;SDS011;7062;49.792;9.946;2023-01-24T16:36:53;11.13;;;8.17;;
13975;SDS011;7062;49.792;9.946;2023-01-24T16:39:20;14.50;;;8.43;;
13975;SDS011;7062;49.792;9.946;2023-01-24T16:41:47;9.75;;;8.27;;
13975;SDS011;7062;49.792;9.946;2023-01-24T16:44:14;9.38;;;7.55;;
13975;SDS011;7062;49.792;9.946;2023-01-24T16:46:40;10.80;;;9.57;;
13975;SDS011;7062;49.792;9.946;2023-01-24T16:49:12;9.90;;;7.97;;
13975;SDS011;7062;49.792;9.946;2023-01-24T16:51:38;10.63;;;7.97;;
13975;SDS011;7062;49.792;9.946;2023-01-24T16:54:03;10.30;;;8.83;;
13975;SDS011;7062;49.792;9.946;2023-01-24T16:56:29;10.80;;;8.33;;
13975;SDS011;7062;49.792;9.946;2023-01-24T16:58:55;12.90;;;8.90;;
13975;SDS011;7062;49.792;9.946;2023-01-24T17:01:20;11.63;;;8.90;;
13975;SDS011;7062;49.792;9.946;2023-01-24T17:03:49;12.93;;;10.03;;
13975;SDS011;7062;49.792;9.946;2023-01-24T17:06:16;13.70;;;9.27;;
13975;SDS011;7062;49.792;9.946;2023-01-24T17:08:42;10.75;;;8.85;;
13975;SDS011;7062;49.792;9.946;2023-01-24T17:11:09;10.40;;;8.73;;
13975;SDS011;7062;49.792;9.946;2023-01-24T17:13:36;11.80;;;9.25;;
13975;SDS011;7062;49.792;9.946;2023-01-24T17:16:03;11.05;;;9.30;;
13975;SDS011;7062;49.792;9.946;2023-01-24T17:18:33;12.27;;;10.55;;
13975;SDS011;7062;49.792;9.946;2023-01-24T17:21:00;14.50;;;10.75;;
13975;SDS011;7062;49.792;9.946;2023-01-24T17:23:31;13.32;;;9.55;;
13975;SDS011;7062;49.792;9.946;2023-01-24T17:26:04;12.10;;;9.02;;
13975;SDS011;7062;49.792;9.946;2023-01-24T17:28:31;13.70;;;10.07;;
13975;SDS011;7062;49.792;9.946;2023-01-24T17:30:57;12.35;;;9.75;;
13975;SDS011;7062;49.792;9.946;2023-01-24T17:33:23;11.17;;;9.57;;
13975;SDS011;7062;49.792;9.946;2023-01-24T17:35:49;12.93;;;10.88;;
13975;SDS011;7062;49.792;9.946;2023-01-24T17:38:15;12.67;;;9.00;;
13975;SDS011;7062;49.792;9.946;2023-01-24T17:40:41;14.20;;;11.13;;
13975;SDS011;7062;49.792;9.946;2023-01-24T17:43:06;12.17;;;9.70;;
13975;SDS011;7062;49.792;9.946;2023-01-24T17:45:32;13.83;;;10.63;;
13975;SDS011;7062;49.792;9.946;2023-01-24T17:47:59;14.60;;;10.68;;